createdAt,value
2022-10-22T00:00:14.515Z,90.70
2022-10-22T00:02:44.673Z,90.60
2022-10-22T00:05:18.602Z,90.50
2022-10-22T00:07:45.335Z,90.60
2022-10-22T00:10:14.326Z,90.60
2022-10-22T00:12:41.047Z,90.70
2022-10-22T00:15:08.265Z,90.70
2022-10-22T00:17:36.116Z,90.60
2022-10-22T00:20:28.077Z,90.60
2022-10-22T00:22:55.034Z,90.40
2022-10-22T00:25:21.824Z,90.30
2022-10-22T00:27:48.613Z,90.40
2022-10-22T00:30:15.841Z,90.40
2022-10-22T00:32:42.860Z,90.60
2022-10-22T00:35:09.844Z,90.70
2022-10-22T00:37:36.689Z,90.70
2022-10-22T00:40:05.225Z,90.80
2022-10-22T00:42:32.339Z,90.80
2022-10-22T00:45:05.287Z,90.90
2022-10-22T00:47:40.281Z,90.80
2022-10-22T00:50:12.769Z,90.80
2022-10-22T00:52:40.329Z,90.70
2022-10-22T00:55:08.092Z,90.70
2022-10-22T00:57:36.104Z,90.90
2022-10-22T01:00:04.103Z,90.90
2022-10-22T01:02:30.871Z,91.00
2022-10-22T01:04:59.701Z,90.90
2022-10-22T01:07:26.698Z,90.80
2022-10-22T01:10:05.190Z,90.70
2022-10-22T01:12:44.574Z,90.70
2022-10-22T01:15:21.970Z,90.60
2022-10-22T01:17:51.518Z,90.80
2022-10-22T01:20:41.491Z,90.80
2022-10-22T01:23:26.857Z,90.90
2022-10-22T01:26:11.666Z,90.90
2022-10-22T01:29:01.745Z,91.10
2022-10-22T01:31:39.913Z,91.10
2022-10-22T01:34:09.821Z,91.20
2022-10-22T01:36:38.818Z,91.30
2022-10-22T01:39:07.358Z,91.30
2022-10-22T01:41:35.082Z,91.30
2022-10-22T01:44:07.641Z,91.20
2022-10-22T01:46:34.992Z,91.20
2022-10-22T01:49:16.966Z,91.00
2022-10-22T01:52:27.234Z,91.20
2022-10-22T01:55:07.073Z,91.10
2022-10-22T01:58:14.982Z,91.20
2022-10-22T02:01:07.469Z,91.30
2022-10-22T02:04:00.222Z,91.40
2022-10-22T02:06:29.539Z,91.40
2022-10-22T02:08:58.135Z,91.40
2022-10-22T02:11:24.878Z,91.40
2022-10-22T02:13:55.295Z,91.40
2022-10-22T02:16:30.226Z,91.40
2022-10-22T02:19:11.749Z,91.60
2022-10-22T02:21:38.943Z,91.50
2022-10-22T02:24:06.297Z,91.60
2022-10-22T02:26:39.252Z,91.70
2022-10-22T02:29:14.215Z,91.80
2022-10-22T02:31:44.701Z,91.80
2022-10-22T02:34:17.965Z,91.90
2022-10-22T02:36:49.629Z,91.90
2022-10-22T02:39:20.490Z,92.10
2022-10-22T02:41:47.846Z,92.20
2022-10-22T02:44:14.891Z,92.50
2022-10-22T02:46:43.334Z,92.70
2022-10-22T02:49:14.101Z,92.90
2022-10-22T02:51:40.906Z,92.90
2022-10-22T02:54:07.780Z,92.90
2022-10-22T02:56:36.887Z,92.90
2022-10-22T02:59:03.708Z,92.90
2022-10-22T03:01:30.539Z,92.90
2022-10-22T03:03:57.335Z,93.00
2022-10-22T03:06:30.141Z,93.10
2022-10-22T03:08:57.104Z,93.00
2022-10-22T03:11:23.909Z,93.10
2022-10-22T03:13:50.695Z,93.30
2022-10-22T03:16:20.075Z,93.30
2022-10-22T03:18:47.252Z,93.30
2022-10-22T03:21:21.659Z,93.40
2022-10-22T03:23:48.926Z,93.40
2022-10-22T03:26:17.276Z,93.50
2022-10-22T03:28:44.220Z,93.40
2022-10-22T03:31:11.087Z,93.40
2022-10-22T03:33:37.845Z,93.40
2022-10-22T03:36:06.092Z,93.40
2022-10-22T03:38:36.931Z,93.40
2022-10-22T03:41:03.912Z,93.30
2022-10-22T03:43:31.889Z,93.30
2022-10-22T03:45:59.772Z,93.30
2022-10-22T03:48:26.523Z,93.30
2022-10-22T03:50:53.237Z,93.30
2022-10-22T03:53:20.017Z,93.30
2022-10-22T03:55:51.135Z,93.20
2022-10-22T03:58:17.898Z,93.40
2022-10-22T04:00:44.664Z,93.40
2022-10-22T04:03:11.523Z,93.40
2022-10-22T04:05:38.307Z,93.50
2022-10-22T04:08:05.231Z,93.40
2022-10-22T04:10:32.191Z,93.60
2022-10-22T04:12:58.914Z,93.70
2022-10-22T04:15:28.152Z,93.80
2022-10-22T04:17:55.419Z,93.80
2022-10-22T04:20:22.124Z,93.90
2022-10-22T04:22:49.133Z,93.90
2022-10-22T04:25:15.911Z,93.90
2022-10-22T04:27:42.936Z,93.80
2022-10-22T04:30:10.302Z,93.80
2022-10-22T04:32:38.131Z,93.80
2022-10-22T04:35:05.361Z,93.70
2022-10-22T04:37:35.165Z,93.70
2022-10-22T04:40:01.910Z,93.80
2022-10-22T04:42:28.705Z,93.80
2022-10-22T04:44:59.774Z,93.80
2022-10-22T04:47:26.738Z,93.80
2022-10-22T04:49:54.709Z,93.80
2022-10-22T04:52:21.449Z,93.90
2022-10-22T04:54:48.261Z,93.90
2022-10-22T04:57:16.214Z,93.80
2022-10-22T04:59:44.571Z,93.90
2022-10-22T05:02:13.430Z,93.90
2022-10-22T05:04:43.484Z,93.80
2022-10-22T05:07:13.462Z,93.80
2022-10-22T05:09:40.226Z,93.90
2022-10-22T05:12:07.296Z,93.90
2022-10-22T05:14:34.261Z,93.80
2022-10-22T05:17:01.063Z,93.80
2022-10-22T05:19:31.360Z,93.80
2022-10-22T05:22:01.988Z,93.80
2022-10-22T05:24:30.069Z,93.70
2022-10-22T05:26:58.781Z,93.60
2022-10-22T05:29:26.847Z,93.60
2022-10-22T05:31:57.672Z,93.70
2022-10-22T05:34:24.425Z,93.70
2022-10-22T05:36:51.145Z,93.70
2022-10-22T05:39:17.993Z,93.70
2022-10-22T05:41:45.926Z,93.60
2022-10-22T05:44:13.861Z,93.60
2022-10-22T05:46:44.095Z,93.60
2022-10-22T05:49:16.699Z,93.60
2022-10-22T05:51:43.514Z,93.60
2022-10-22T05:54:19.686Z,93.60
2022-10-22T05:56:46.496Z,93.50
2022-10-22T05:59:13.307Z,93.50
2022-10-22T06:01:41.239Z,93.60
2022-10-22T06:04:11.903Z,93.60
2022-10-22T06:06:45.228Z,93.50
2022-10-22T06:09:20.300Z,93.50
2022-10-22T06:11:47.738Z,93.50
2022-10-22T06:14:15.902Z,93.50
2022-10-22T06:16:43.665Z,93.50
2022-10-22T06:19:13.286Z,93.40
2022-10-22T06:21:42.770Z,93.40
2022-10-22T06:24:10.768Z,93.40
2022-10-22T06:26:39.876Z,93.40
2022-10-22T06:29:06.848Z,93.30
2022-10-22T06:31:37.003Z,93.30
2022-10-22T06:34:11.043Z,93.20
2022-10-22T06:36:38.209Z,93.20
2022-10-22T06:39:05.354Z,93.20
2022-10-22T06:41:33.129Z,93.10
2022-10-22T06:44:00.159Z,93.10
2022-10-22T06:46:27.482Z,93.20
2022-10-22T06:48:57.268Z,93.20
2022-10-22T06:51:24.637Z,93.30
2022-10-22T06:53:51.743Z,93.30
2022-10-22T06:56:21.353Z,93.30
2022-10-22T06:58:52.510Z,93.30
2022-10-22T07:01:21.607Z,93.40
2022-10-22T07:03:51.106Z,93.20
2022-10-22T07:06:18.419Z,93.20
2022-10-22T07:08:45.424Z,93.00
2022-10-22T07:11:15.229Z,92.80
2022-10-22T07:13:42.955Z,92.60
2022-10-22T07:16:10.754Z,92.40
2022-10-22T07:18:39.314Z,92.30
2022-10-22T07:21:07.258Z,92.30
2022-10-22T07:23:34.123Z,92.20
2022-10-22T07:26:02.808Z,92.30
2022-10-22T07:28:30.722Z,92.30
2022-10-22T07:30:57.505Z,92.30
2022-10-22T07:33:24.256Z,92.30
2022-10-22T07:35:51.008Z,92.30
2022-10-22T07:38:17.841Z,92.20
2022-10-22T07:40:45.735Z,92.10
2022-10-22T07:43:12.472Z,92.10
2022-10-22T07:45:46.240Z,91.90
2022-10-22T07:48:13.114Z,91.90
2022-10-22T07:50:41.521Z,91.80
2022-10-22T07:53:09.659Z,92.00
2022-10-22T07:55:42.363Z,91.90
2022-10-22T07:58:09.091Z,91.80
2022-10-22T08:00:35.942Z,92.00
2022-10-22T08:03:02.740Z,91.70
2022-10-22T08:05:29.694Z,91.70
2022-10-22T08:07:57.601Z,91.80
2022-10-22T08:10:24.776Z,91.50
2022-10-22T08:12:51.583Z,91.40
2022-10-22T08:15:18.533Z,91.30
2022-10-22T08:17:45.390Z,91.50
2022-10-22T08:20:12.173Z,91.70
2022-10-22T08:22:38.962Z,91.60
2022-10-22T08:25:06.210Z,91.70
2022-10-22T08:27:32.933Z,91.60
2022-10-22T08:29:59.721Z,91.30
2022-10-22T08:34:58.640Z,90.70
2022-10-22T08:37:25.996Z,90.90
2022-10-22T08:39:52.903Z,91.20
2022-10-22T08:42:24.912Z,91.00
2022-10-22T08:45:08.856Z,91.00
2022-10-22T08:48:15.001Z,90.80
2022-10-22T08:50:52.046Z,90.80
2022-10-22T08:53:24.593Z,90.80
2022-10-22T08:55:53.894Z,90.80
2022-10-22T08:58:42.349Z,91.00
2022-10-22T09:01:28.563Z,90.40
2022-10-22T09:04:09.420Z,90.40
2022-10-22T09:06:41.578Z,90.60
2022-10-22T09:09:19.550Z,90.50
2022-10-22T09:11:49.776Z,90.60
2022-10-22T09:14:21.172Z,90.30
2022-10-22T09:17:00.989Z,90.20
2022-10-22T09:19:50.936Z,90.20
2022-10-22T09:22:43.057Z,90.30
2022-10-22T09:25:32.737Z,90.10
2022-10-22T09:28:04.617Z,90.30
2022-10-22T09:30:43.469Z,90.20
2022-10-22T09:33:10.541Z,90.50
2022-10-22T09:35:52.996Z,90.00
2022-10-22T09:38:25.253Z,89.60
2022-10-22T09:40:54.779Z,89.70
2022-10-22T09:43:21.562Z,89.40
2022-10-22T09:45:49.653Z,89.50
2022-10-22T09:48:34.608Z,89.50
2022-10-22T09:51:18.030Z,89.40
2022-10-22T09:53:56.512Z,89.50
2022-10-22T09:56:27.882Z,89.40
2022-10-22T09:58:57.709Z,89.50
2022-10-22T10:01:36.039Z,89.50
2022-10-22T10:06:54.772Z,88.60
2022-10-22T10:09:25.009Z,87.40
2022-10-22T10:12:26.637Z,88.00
2022-10-22T10:15:10.301Z,87.70
2022-10-22T10:17:44.017Z,87.20
2022-10-22T10:20:29.294Z,87.70
2022-10-22T10:23:08.451Z,88.10
2022-10-22T10:25:53.387Z,88.10
2022-10-22T10:28:38.829Z,88.30
2022-10-22T10:31:10.596Z,87.60
2022-10-22T10:34:07.613Z,87.40
2022-10-22T10:36:52.531Z,87.10
2022-10-22T10:39:40.587Z,87.30
2022-10-22T10:42:19.373Z,87.60
2022-10-22T10:44:55.451Z,87.60
2022-10-22T10:47:49.654Z,86.90
2022-10-22T10:51:07.112Z,86.40
2022-10-22T10:54:01.176Z,85.40
2022-10-22T10:56:39.298Z,85.10
2022-10-22T10:59:14.732Z,84.70
2022-10-22T11:01:59.263Z,84.60
2022-10-22T11:04:57.289Z,84.60
2022-10-22T11:07:41.756Z,84.50
2022-10-22T11:10:26.012Z,82.90
2022-10-22T11:12:56.268Z,82.40
2022-10-22T11:15:33.551Z,82.30
2022-10-22T11:18:23.148Z,82.00
2022-10-22T11:21:03.366Z,81.60
2022-10-22T11:23:51.791Z,81.00
2022-10-22T11:26:31.797Z,80.30
2022-10-22T11:29:02.184Z,80.10
2022-10-22T11:31:31.778Z,79.20
2022-10-22T11:34:32.200Z,79.60
2022-10-22T11:36:59.578Z,80.50
2022-10-22T11:39:42.590Z,80.70
2022-10-22T11:42:22.500Z,81.60
2022-10-22T11:45:00.675Z,81.00
2022-10-22T11:47:42.155Z,81.50
2022-10-22T11:50:22.731Z,80.90
2022-10-22T11:53:27.593Z,80.30
2022-10-22T11:56:04.672Z,80.60
2022-10-22T11:58:41.734Z,80.20
2022-10-22T12:01:38.432Z,79.50
2022-10-22T12:04:23.316Z,79.40
2022-10-22T12:06:59.222Z,78.40
2022-10-22T12:09:30.611Z,78.30
2022-10-22T12:12:04.725Z,77.70
2022-10-22T12:14:57.982Z,77.90
2022-10-22T12:17:32.367Z,77.90
2022-10-22T12:20:13.440Z,78.10
2022-10-22T12:22:40.738Z,79.60
2022-10-22T12:25:20.083Z,79.10
2022-10-22T12:27:57.493Z,79.50
2022-10-22T12:30:35.975Z,78.00
2022-10-22T12:33:07.031Z,76.10
2022-10-22T12:35:47.666Z,76.30
2022-10-22T12:38:17.776Z,76.80
2022-10-22T12:40:48.396Z,76.80
2022-10-22T12:43:24.443Z,76.00
2022-10-22T12:45:53.374Z,74.10
2022-10-22T12:48:38.696Z,74.50
2022-10-22T12:51:09.521Z,74.10
2022-10-22T12:53:39.461Z,75.00
2022-10-22T12:56:22.086Z,77.30
2022-10-22T12:58:58.470Z,75.60
2022-10-22T13:01:29.113Z,75.60
2022-10-22T13:04:39.914Z,75.80
2022-10-22T13:07:12.761Z,76.50
2022-10-22T13:09:46.584Z,76.40
2022-10-22T13:12:17.793Z,77.40
2022-10-22T13:14:46.023Z,77.40
2022-10-22T13:17:16.530Z,77.40
2022-10-22T13:19:55.539Z,76.60
2022-10-22T13:22:31.597Z,74.50
2022-10-22T13:25:16.196Z,75.50
2022-10-22T13:27:53.534Z,76.10
2022-10-22T13:30:29.454Z,75.70
2022-10-22T13:32:59.715Z,77.10
2022-10-22T13:35:32.262Z,76.70
2022-10-22T13:37:59.870Z,77.50
2022-10-22T13:40:29.558Z,77.10
2022-10-22T13:42:56.435Z,75.40
2022-10-22T13:45:23.551Z,76.20
2022-10-22T13:47:53.307Z,76.00
2022-10-22T13:50:24.328Z,77.50
2022-10-22T13:52:59.907Z,76.50
2022-10-22T13:55:31.918Z,77.90
2022-10-22T13:58:06.988Z,79.30
2022-10-22T14:00:33.800Z,76.50
2022-10-22T14:03:04.674Z,79.70
2022-10-22T14:05:32.599Z,80.20
2022-10-22T14:08:17.598Z,79.60
2022-10-22T14:10:46.469Z,79.90
2022-10-22T14:13:15.614Z,77.80
2022-10-22T14:15:45.526Z,78.10
2022-10-22T14:18:24.151Z,78.70
2022-10-22T14:20:55.174Z,78.60
2022-10-22T14:23:28.417Z,78.40
2022-10-22T14:25:57.431Z,79.00
2022-10-22T14:28:24.248Z,79.60
2022-10-22T14:30:56.341Z,80.50
2022-10-22T14:33:27.203Z,79.70
2022-10-22T14:36:02.920Z,79.80
2022-10-22T14:38:29.774Z,79.80
2022-10-22T14:41:00.027Z,78.10
2022-10-22T14:43:31.135Z,79.10
2022-10-22T14:45:58.851Z,79.20
2022-10-22T14:48:29.697Z,79.80
2022-10-22T14:50:56.381Z,79.80
2022-10-22T14:53:23.160Z,80.00
2022-10-22T14:55:51.578Z,81.20
2022-10-22T14:58:20.897Z,81.40
2022-10-22T15:00:47.745Z,81.40
2022-10-22T15:03:17.801Z,81.20
2022-10-22T15:05:45.059Z,81.40
2022-10-22T15:08:12.982Z,81.20
2022-10-22T15:10:40.439Z,82.20
2022-10-22T15:13:07.293Z,82.80
2022-10-22T15:15:39.296Z,82.90
2022-10-22T15:18:14.900Z,82.70
2022-10-22T15:20:44.272Z,82.90
2022-10-22T15:23:12.075Z,83.60
2022-10-22T15:25:43.055Z,83.50
2022-10-22T15:28:10.163Z,83.70
2022-10-22T15:30:37.075Z,84.10
2022-10-22T15:33:10.126Z,84.50
2022-10-22T15:35:36.914Z,85.00
2022-10-22T15:38:11.539Z,85.40
2022-10-22T15:40:39.310Z,85.80
2022-10-22T15:43:06.070Z,86.00
2022-10-22T15:45:32.859Z,86.40
2022-10-22T15:47:59.583Z,86.40
2022-10-22T15:50:27.375Z,86.20
2022-10-22T15:52:57.011Z,86.10
2022-10-22T15:55:24.126Z,86.30
2022-10-22T15:57:57.114Z,87.00
2022-10-22T16:00:26.044Z,87.20
2022-10-22T16:02:55.192Z,87.20
2022-10-22T16:05:21.997Z,87.20
2022-10-22T16:07:48.775Z,87.60
2022-10-22T16:10:15.636Z,87.30
2022-10-22T16:12:43.320Z,87.50
2022-10-22T16:15:10.775Z,87.60
2022-10-22T16:17:37.603Z,87.40
2022-10-22T16:20:04.811Z,87.50
2022-10-22T16:22:35.635Z,87.60
2022-10-22T16:25:02.395Z,87.60
2022-10-22T16:27:29.078Z,87.50
2022-10-22T16:29:55.952Z,87.70
2022-10-22T16:32:23.181Z,88.00
2022-10-22T16:34:49.953Z,87.60
2022-10-22T16:37:16.656Z,87.40
2022-10-22T16:39:44.435Z,87.40
2022-10-22T16:42:12.242Z,87.20
2022-10-22T16:44:38.941Z,87.10
2022-10-22T16:47:05.661Z,87.30
2022-10-22T16:49:32.387Z,87.40
2022-10-22T16:51:59.193Z,87.40
2022-10-22T16:54:25.949Z,87.40
2022-10-22T16:56:52.749Z,87.30
2022-10-22T16:59:19.505Z,87.50
2022-10-22T17:01:46.143Z,87.70
2022-10-22T17:04:12.942Z,87.80
2022-10-22T17:06:39.827Z,87.90
2022-10-22T17:09:08.060Z,88.20
2022-10-22T17:11:37.022Z,88.20
2022-10-22T17:14:06.603Z,88.40
2022-10-22T17:16:33.274Z,88.20
2022-10-22T17:19:02.617Z,88.60
2022-10-22T17:21:29.372Z,88.40
2022-10-22T17:23:57.140Z,88.30
2022-10-22T17:26:26.570Z,88.20
2022-10-22T17:28:54.141Z,88.00
2022-10-22T17:31:28.610Z,88.30
2022-10-22T17:33:56.888Z,88.30
2022-10-22T17:36:24.660Z,88.10
2022-10-22T17:38:54.140Z,88.10
2022-10-22T17:41:27.174Z,88.10
2022-10-22T17:43:54.575Z,88.30
2022-10-22T17:46:24.483Z,88.50
2022-10-22T17:48:56.495Z,88.80
2022-10-22T17:51:24.684Z,88.80
2022-10-22T17:53:51.947Z,88.90
2022-10-22T17:56:24.417Z,88.90
2022-10-22T17:58:51.799Z,88.70
2022-10-22T18:01:27.730Z,88.60
2022-10-22T18:04:01.107Z,88.40
2022-10-22T18:06:28.766Z,88.50
2022-10-22T18:08:55.605Z,88.80
2022-10-22T18:11:25.705Z,88.90
2022-10-22T18:13:57.416Z,88.90
2022-10-22T18:16:24.737Z,89.00
2022-10-22T18:18:55.886Z,89.00
2022-10-22T18:21:24.867Z,89.00
2022-10-22T18:23:51.756Z,89.20
2022-10-22T18:26:21.390Z,89.00
2022-10-22T18:28:51.329Z,88.90
2022-10-22T18:31:21.221Z,88.80
2022-10-22T18:33:48.493Z,88.80
2022-10-22T18:36:19.289Z,88.90
2022-10-22T18:38:58.226Z,88.90
2022-10-22T18:41:28.183Z,89.50
2022-10-22T18:43:57.633Z,89.70
2022-10-22T18:46:24.988Z,89.30
2022-10-22T18:48:58.993Z,89.50
2022-10-22T18:51:30.203Z,89.90
2022-10-22T18:54:05.827Z,90.20
2022-10-22T18:56:46.467Z,89.90
2022-10-22T18:59:23.010Z,90.00
2022-10-22T19:01:52.086Z,90.20
2022-10-22T19:04:22.385Z,90.00
2022-10-22T19:06:50.577Z,89.80
2022-10-22T19:09:18.804Z,89.90
2022-10-22T19:11:46.358Z,90.00
2022-10-22T19:14:16.126Z,89.70
2022-10-22T19:16:42.866Z,89.90
2022-10-22T19:19:09.619Z,90.30
2022-10-22T19:21:40.755Z,90.60
2022-10-22T19:24:07.549Z,90.60
2022-10-22T19:26:36.337Z,90.30
2022-10-22T19:29:03.939Z,90.00
2022-10-22T19:31:31.564Z,89.80
2022-10-22T19:34:00.561Z,89.90
2022-10-22T19:36:28.831Z,90.10
2022-10-22T19:38:59.468Z,89.90
2022-10-22T19:41:28.426Z,90.00
2022-10-22T19:43:56.790Z,90.00
2022-10-22T19:46:25.598Z,89.80
2022-10-22T19:48:52.881Z,90.10
2022-10-22T19:51:21.979Z,89.90
2022-10-22T19:53:49.549Z,89.90
2022-10-22T19:56:18.355Z,90.00
2022-10-22T19:58:45.549Z,90.00
2022-10-22T20:01:16.520Z,90.10
2022-10-22T20:03:51.300Z,90.00
2022-10-22T20:06:19.187Z,90.40
2022-10-22T20:08:47.426Z,89.90
2022-10-22T20:11:27.321Z,89.70
2022-10-22T20:13:54.876Z,89.70
2022-10-22T20:16:24.367Z,90.00
2022-10-22T20:18:55.582Z,90.10
2022-10-22T20:21:26.180Z,90.10
2022-10-22T20:23:54.580Z,90.20
2022-10-22T20:26:23.401Z,90.30
2022-10-22T20:28:52.028Z,90.40
2022-10-22T20:31:20.249Z,91.00
2022-10-22T20:33:47.991Z,91.30
2022-10-22T20:36:18.361Z,91.20
2022-10-22T20:38:47.964Z,91.00
2022-10-22T20:41:20.665Z,91.40
2022-10-22T20:43:48.857Z,91.40
2022-10-22T20:46:24.746Z,91.20
2022-10-22T20:48:53.367Z,91.00
2022-10-22T20:51:23.482Z,91.10
2022-10-22T20:53:50.514Z,91.20
2022-10-22T20:56:18.515Z,91.60
2022-10-22T20:58:49.589Z,91.20
2022-10-22T21:01:21.621Z,91.20
2022-10-22T21:03:52.318Z,91.10
2022-10-22T21:06:24.261Z,90.90
2022-10-22T21:08:52.130Z,91.10
2022-10-22T21:11:20.058Z,91.10
2022-10-22T21:13:47.435Z,91.40
2022-10-22T21:16:17.739Z,91.00
2022-10-22T21:18:46.851Z,90.90
2022-10-22T21:21:13.996Z,91.20
2022-10-22T21:23:40.748Z,91.10
2022-10-22T21:26:08.057Z,91.10
2022-10-22T21:28:36.468Z,91.00
2022-10-22T21:31:05.303Z,91.10
2022-10-22T21:33:35.309Z,91.40
2022-10-22T21:36:03.699Z,91.40
2022-10-22T21:38:30.518Z,91.50
2022-10-22T21:40:57.330Z,91.80
2022-10-22T21:43:24.296Z,91.60
2022-10-22T21:45:51.109Z,91.70
2022-10-22T21:48:17.866Z,91.70
2022-10-22T21:50:46.583Z,91.40
2022-10-22T21:53:16.332Z,91.80
2022-10-22T21:55:43.134Z,91.70
2022-10-22T21:58:09.951Z,91.40
2022-10-22T22:00:37.702Z,91.40
2022-10-22T22:03:07.190Z,91.70
2022-10-22T22:05:35.409Z,92.00
2022-10-22T22:08:02.145Z,91.90
2022-10-22T22:10:30.299Z,91.80
2022-10-22T22:12:57.004Z,91.80
2022-10-22T22:15:25.732Z,91.70
2022-10-22T22:17:53.838Z,91.70
2022-10-22T22:20:20.647Z,91.50
2022-10-22T22:22:47.396Z,91.50
2022-10-22T22:25:14.269Z,91.50
2022-10-22T22:27:41.456Z,91.30
2022-10-22T22:30:09.464Z,91.30
2022-10-22T22:32:36.228Z,91.10
2022-10-22T22:35:03.020Z,91.10
2022-10-22T22:37:31.766Z,91.60
2022-10-22T22:39:58.491Z,91.40
2022-10-22T22:42:25.282Z,91.40
2022-10-22T22:44:51.960Z,91.30
2022-10-22T22:47:19.692Z,91.50
2022-10-22T22:49:46.384Z,91.60
2022-10-22T22:52:13.114Z,91.80
2022-10-22T22:54:39.969Z,91.80
2022-10-22T22:57:06.847Z,91.90
2022-10-22T22:59:33.576Z,91.80
2022-10-22T23:02:00.444Z,91.70
2022-10-22T23:04:29.328Z,91.80
2022-10-22T23:06:56.275Z,91.60
2022-10-22T23:09:23.049Z,91.50
2022-10-22T23:11:51.147Z,91.50
2022-10-22T23:14:19.089Z,91.40
2022-10-22T23:16:50.057Z,91.40
2022-10-22T23:19:19.642Z,91.40
2022-10-22T23:21:51.169Z,91.30
2022-10-22T23:24:21.332Z,91.30
2022-10-22T23:26:50.239Z,91.60
2022-10-22T23:29:20.472Z,91.50
2022-10-22T23:31:49.017Z,91.50
2022-10-22T23:34:24.664Z,91.40
2022-10-22T23:36:52.653Z,91.40
2022-10-22T23:39:23.544Z,91.50
2022-10-22T23:41:51.179Z,91.60
2022-10-22T23:44:18.070Z,91.50
2022-10-22T23:46:44.777Z,91.60
2022-10-22T23:49:11.995Z,91.60
2022-10-22T23:51:40.977Z,91.60
2022-10-22T23:54:12.055Z,91.60
2022-10-22T23:56:38.919Z,91.50
2022-10-22T23:59:06.786Z,91.20
